Nearby METAR Reports


KANE - Minneapls/Blaine, Minnesota, USA
Distance from station: ESE 8mi, 13km
Updated: 04/12/2021 4:50pm
Overcast
Overcast
 Wind from WSW
Wind: WSW 14 mph , 22 km/h, Gust: 20 mph , 31 km/h
Temperature: 46°F , 8°C
Wind Chill: 40°F , 4°C
Dew Point: 39°F , 4°C
Humidity: 76%
Barometer: 29.77 inHg , 1008.1 hPa
Clouds: Overcast
Visibility: 10 miles , 16 km
Cloud details: Mostly cloudy 1700 ft
Overcast 2500 ft
2021/04/12 21:50 KANE 122150Z 25012G17KT 10SM BKN017 OVC025 08/04 A2977
KMIC - Mnpls/Crystal, Minnesota, USA
Distance from station: S 8mi, 14km
Updated: 04/12/2021 4:53pm
Overcast
Overcast
 Wind from SW
Wind: SW 14 mph , 22 km/h, Gust: 21 mph , 33 km/h
Temperature: 45°F , 7°C
Wind Chill: 39°F , 4°C
Dew Point: 39°F , 4°C
Humidity: 81%
Barometer: 29.77 inHg , 1008.1 hPa
Clouds: Overcast
Visibility: 10 miles , 16 km
Cloud details: Overcast 1900 ft
2021/04/12 21:53 KMIC 122153Z 23012G18KT 10SM OVC019 07/04 A2977 RMK AO2 SLP087 T00720039
 
KMSP - Minneapolis, Minnesota, USA
Distance from station: SSE 22mi, 35km
Updated: 04/12/2021 4:53pm
Overcast
Overcast
 Wind from SW
Wind: SW 14 mph , 22 km/h, Gust: 22 mph , 35 km/h
Temperature: 43°F , 6°C
Wind Chill: 36°F , 2°C
Dew Point: 39°F , 4°C
Humidity: 87%
Barometer: 29.80 inHg , 1009.1 hPa
Clouds: Overcast
Visibility: 10 miles , 16 km
Cloud details: Overcast 1600 ft
2021/04/12 21:53 KMSP 122153Z 23012G19KT 10SM OVC016 06/04 A2980 RMK AO2 PK WND 25026/2112 RAE31 SLP096 P0000 T00610039
KSTP - St. Paul, Minnesota, USA
Distance from station: SE 23mi, 38km
Updated: 04/12/2021 4:53pm
Overcast
Overcast
 Wind from WSW
Wind: WSW 15 mph , 24 km/h, Gust: 23 mph , 37 km/h
Temperature: 45°F , 7°C
Wind Chill: 38°F , 3°C
Dew Point: 39°F , 4°C
Humidity: 81%
Barometer: 29.81 inHg , 1009.5 hPa
Clouds: Overcast
Visibility: 10 miles , 16 km
Cloud details: Overcast 1800 ft
2021/04/12 21:53 KSTP 122153Z 24013G20KT 10SM OVC018 07/04 A2981 RMK AO2 RAE33 SLP095 P0000 T00670039
 
KCFE - Buffalo Muni, Minnesota, USA
Distance from station: W 24mi, 38km
Updated: 04/12/2021 5:15pm
Overcast
Overcast
 
Temperature: 45°F , 7°C
Dew Point: 37°F , 3°C
Humidity: 76%
Barometer: 29.79 inHg , 1008.8 hPa
Clouds: Overcast
Visibility: 10 miles , 16 km
Cloud details: Overcast 2300 ft
2021/04/12 22:15 KCFE 122215Z 10SM OVC023 07/03 A2979 RMK AO2 T00710032
KFCM - Mnpls/Flying Cld, Minnesota, USA
Distance from station: S 25mi, 40km
Updated: 04/12/2021 4:53pm
Light rain, Overcast
Light rain, Overcast
 Wind from WSW
Wind: WSW 12 mph , 19 km/h, Gust: 23 mph , 37 km/h
Temperature: 43°F , 6°C
Wind Chill: 37°F , 3°C
Dew Point: 37°F , 3°C
Humidity: 81%
Barometer: 29.80 inHg , 1009.1 hPa
Summary: Light rain
Clouds: Overcast
Visibility: 10 miles , 16 km
Cloud details: Overcast 1600 ft
2021/04/12 21:53 KFCM 122153Z 25010G20KT 10SM -RA OVC016 06/03 A2980 RMK AO2 RAB10E38B53 SLP095 P0000 T00610028
 
KCBG - Cambridge Muni, Minnesota, USA
Distance from station: N 27mi, 43km
Updated: 04/12/2021 5:15pm
Rain, Overcast
Rain, Overcast
 Wind from WSW
Wind: WSW 8 mph , 13 km/h
Temperature: 45°F , 7°C
Wind Chill: 41°F , 5°C
Dew Point: 37°F , 3°C
Humidity: 76%
Barometer: 29.75 inHg , 1007.5 hPa
Summary: Rain
Clouds: Overcast
Visibility: 10 miles , 16 km
Cloud details: Partly cloudy 1800 ft
Mostly cloudy 2500 ft
Overcast 3000 ft
2021/04/12 22:15 KCBG 122215Z AUTO 24007KT 10SM RA SCT018 BKN025 OVC030 07/03 A2975 RMK AO2 P0001
KPNM - Princeton Muni, Minnesota, USA
Distance from station: NNW 27mi, 44km
Updated: 04/12/2021 5:15pm
Light rain, Overcast
Light rain, Overcast
 Wind from WSW
Wind: WSW 13 mph , 20 km/h, Gust: 24 mph , 39 km/h
Temperature: 46°F , 8°C
Wind Chill: 40°F , 4°C
Dew Point: 41°F , 5°C
Humidity: 82%
Barometer: 29.75 inHg , 1007.5 hPa
Summary: Light rain
Clouds: Overcast
Visibility: 10 miles , 16 km
Cloud details: Mostly cloudy 2200 ft
Mostly cloudy 2900 ft
Overcast 3400 ft
2021/04/12 22:15 KPNM 122215Z AUTO 25011G21KT 10SM -RA BKN022 BKN029 OVC034 08/05 A2975 RMK AO2
 
K21D - Lake Elmo, Minnesota, USA
Distance from station: ESE 28mi, 46km
Updated: 04/12/2021 4:46pm
Light drizzle, Overcast
Light drizzle, Overcast
 Wind from WSW
Wind: WSW 16 mph , 26 km/h, Gust: 22 mph , 35 km/h
Temperature: 43°F , 6°C
Wind Chill: 35°F , 2°C
Dew Point: 39°F , 4°C
Humidity: 87%
Barometer: 29.80 inHg , 1009.1 hPa
Summary: Light Drizzle
Clouds: Overcast
Visibility: 10 miles , 16 km
Cloud details: Overcast 1700 ft
2021/04/12 21:46 K21D 122146Z AUTO 25014G19KT 10SM -DZ OVC017 06/04 A2980 RMK AO2
KSGS - South St Paul, Minnesota, USA
Distance from station: SE 28mi, 46km
Updated: 04/12/2021 5:15pm
Mostly cloudy
Mostly cloudy
 Wind from WSW
Wind: WSW 15 mph , 24 km/h, Gust: 23 mph , 37 km/h
Temperature: 43°F , 6°C
Wind Chill: 36°F , 2°C
Dew Point: 39°F , 4°C
Humidity: 87%
Barometer: 29.81 inHg , 1009.5 hPa
Clouds: Mostly cloudy
Visibility: 10 miles , 16 km
Cloud details: Mostly cloudy 1700 ft
2021/04/12 22:15 KSGS 122215Z AUTO 25013G20KT 10SM BKN017 06/04 A2981 RMK AO2 T00610040
 
KMGG - Maple Lake, Minnesota, USA
Distance from station: W 30mi, 48km
Updated: 04/12/2021 5:15pm
Light rain
Light rain
 Wind from W
Wind: W 8 mph , 13 km/h
Temperature: 45°F , 7°C
Wind Chill: 41°F , 5°C
Dew Point: 43°F , 6°C
Humidity: 93%
Barometer: 29.80 inHg , 1009.1 hPa
Summary: Light rain
Visibility: 5 miles , 8 km
2021/04/12 22:15 KMGG 122215Z AUTO 26007KT 5SM -RA 07/06 A2980 RMK AO2 T00740055
KOEO - Osceola, Wisconsin, USA
Distance from station: ENE 34mi, 55km
Updated: 04/12/2021 5:15pm
Overcast
Overcast
 Wind from SW
Wind: SW 14 mph , 22 km/h
Temperature: 45°F , 7°C
Wind Chill: 39°F , 4°C
Dew Point: 41°F , 5°C
Humidity: 87%
Barometer: 29.80 inHg , 1009.1 hPa
Clouds: Overcast
Visibility: 10 miles , 16 km
Cloud details: Mostly cloudy 1700 ft
Overcast 2200 ft
2021/04/12 22:15 KOEO 122215Z AUTO 22012KT 10SM BKN017 OVC022 07/05 A2980 RMK AO2 T00680054 PWINO
 
KLVN - Mnpls/Airlake, Minnesota, USA
Distance from station: S 39mi, 63km
Updated: 04/12/2021 5:15pm
Light drizzle, Overcast
Light drizzle, Overcast
 Wind from WSW
Wind: WSW 10 mph , 17 km/h, Gust: 18 mph , 30 km/h
Temperature: 41°F , 5°C
Wind Chill: 35°F , 2°C
Dew Point: 36°F , 2°C
Humidity: 81%
Barometer: 29.83 inHg , 1010.2 hPa
Summary: Light Drizzle
Clouds: Overcast
Visibility: 10 miles , 16 km
Cloud details: Mostly cloudy 2000 ft
Mostly cloudy 2700 ft
Overcast 4700 ft
2021/04/12 22:15 KLVN 122215Z AUTO 25009G16KT 10SM -DZ BKN020 BKN027 OVC047 05/02 A2983 RMK AO2
KRNH - New Richmond Mun, Wisconsin, USA
Distance from station: E 41mi, 66km
Updated: 04/12/2021 5:15pm
Drizzle, Overcast
Drizzle, Overcast
 Wind from SW
Wind: SW 14 mph , 22 km/h
Temperature: 43°F , 6°C
Wind Chill: 36°F , 2°C
Dew Point: 39°F , 4°C
Humidity: 87%
Barometer: 29.79 inHg , 1008.8 hPa
Summary: Drizzle
Clouds: Overcast
Visibility: 5 miles , 8 km
Cloud details: Mostly cloudy 1700 ft
Overcast 2200 ft
2021/04/12 22:15 KRNH 122215Z AUTO 23012KT 5SM DZ BKN017 OVC022 06/04 A2979 RMK AO2 T00580036
 
KROS - Rush City, Minnesota, USA
Distance from station: NNE 41mi, 66km
Updated: 04/12/2021 5:15pm
Light rain, Overcast
Light rain, Overcast
 Wind from WSW
Wind: WSW 10 mph , 17 km/h
Temperature: 45°F , 7°C
Wind Chill: 40°F , 4°C
Dew Point: 39°F , 4°C
Humidity: 81%
Barometer: 29.74 inHg , 1007.1 hPa
Summary: Light rain
Clouds: Overcast
Visibility: 10 miles , 16 km
Cloud details: Partly cloudy 2000 ft
Mostly cloudy 2900 ft
Overcast 3900 ft
2021/04/12 22:15 KROS 122215Z AUTO 24009KT 10SM -RA SCT020 BKN029 OVC039 07/04 A2974 RMK AO2 T00720042
KSTC - St. Cloud, Minnesota, USA
Distance from station: NW 41mi, 67km
Updated: 04/12/2021 4:53pm
Overcast
Overcast
 Wind from WSW
Wind: WSW 15 mph , 24 km/h
Temperature: 46°F , 8°C
Wind Chill: 40°F , 4°C
Dew Point: 39°F , 4°C
Humidity: 76%
Barometer: 29.74 inHg , 1007.1 hPa
Clouds: Overcast
Visibility: 10 miles , 16 km
Cloud details: Mostly cloudy 2900 ft
Overcast 3600 ft
2021/04/12 21:53 KSTC 122153Z 25013KT 10SM BKN029 OVC036 08/04 A2974 RMK AO2 RAB05E16B35E45 SLP086 P0000 T00780044
 
KGYL - Glencoe, Minnesota, USA
Distance from station: SW 46mi, 74km
Updated: 04/12/2021 5:15pm
Overcast
Overcast
 Wind from WSW
Wind: WSW 13 mph , 20 km/h, Gust: 18 mph , 30 km/h
Temperature: 43°F , 6°C
Wind Chill: 36°F , 2°C
Dew Point: 37°F , 3°C
Humidity: 81%
Barometer: 29.82 inHg , 1009.8 hPa
Clouds: Overcast
Visibility: 10 miles , 16 km
Cloud details: Overcast 2300 ft
2021/04/12 22:15 KGYL 122215Z AUTO 25011G16KT 10SM OVC023 06/03 A2982 RMK AO2 T00610028
KJMR - Mora, Minnesota, USA
Distance from station: N 48mi, 78km
Updated: 04/12/2021 5:15pm
Overcast
Overcast
 Wind from WNW
Wind: WNW 9 mph , 15 km/h
Temperature: 43°F , 6°C
Wind Chill: 38°F , 3°C
Dew Point: 37°F , 3°C
Humidity: 81%
Barometer: 29.75 inHg , 1007.5 hPa
Clouds: Overcast
Visibility: 10 miles , 16 km
Cloud details: Partly cloudy 1200 ft
Mostly cloudy 2500 ft
Overcast 3400 ft
2021/04/12 22:15 KJMR 122215Z AUTO 29008KT 10SM SCT012 BKN025 OVC034 06/03 A2975 RMK AO2